Time;durP1;ratioP1;P1;durP2;ratioP2;P2;SDS_P1;SDS_P2;PMS_P1;PMS_P2;Temp;Humidity;BMP_temperature;BMP_pressure;BME280_temperature;BME280_humidity;BME280_pressure;Samples;Min_cycle;Max_cycle;Signal;HPM_P1;HPM_P2
2021/01/03 00:02:19;;;;;;;7.87;6.23;;;2.40;99.90;;;;;;4881378;29;20438;-65
2021/01/03 00:04:45;;;;;;;9.63;6.63;;;2.50;99.90;;;;;;4881352;29;20450;-65
2021/01/03 00:07:11;;;;;;;11.27;6.80;;;2.60;99.90;;;;;;4873763;29;20472;-65
2021/01/03 00:09:37;;;;;;;8.00;5.77;;;2.60;99.90;;;;;;4881314;29;20456;-65
2021/01/03 00:12:04;;;;;;;8.30;5.57;;;2.70;99.90;;;;;;4881194;29;20453;-65
2021/01/03 00:14:31;;;;;;;7.60;5.10;;;2.70;99.90;;;;;;4881094;29;20492;-65
2021/01/03 00:17:01;;;;;;;7.67;5.83;;;2.60;99.90;;;;;;4880765;29;20496;-65
2021/01/03 00:19:27;;;;;;;9.50;6.57;;;2.70;99.90;;;;;;4880920;29;20457;-65
2021/01/03 00:21:55;;;;;;;7.83;5.90;;;2.60;99.90;;;;;;4881033;29;20438;-65
2021/01/03 00:24:21;;;;;;;7.10;5.63;;;2.60;99.90;;;;;;4880939;29;20481;-65
2021/01/03 00:26:48;;;;;;;8.50;5.83;;;2.50;99.90;;;;;;4881231;29;20458;-65
2021/01/03 00:29:16;;;;;;;9.00;5.77;;;2.50;99.90;;;;;;4880884;29;20457;-65
2021/01/03 00:31:44;;;;;;;9.03;5.93;;;2.50;99.90;;;;;;4880848;29;20466;-65
2021/01/03 00:34:11;;;;;;;8.70;5.97;;;2.50;99.90;;;;;;4880458;29;21002;-65
2021/01/03 00:36:37;;;;;;;7.17;5.73;;;2.40;99.90;;;;;;4880772;29;20450;-65
2021/01/03 00:39:04;;;;;;;7.20;5.47;;;2.40;99.90;;;;;;4881207;29;20513;-65
2021/01/03 00:41:30;;;;;;;8.80;6.00;;;2.40;99.90;;;;;;4879920;29;20489;-65
2021/01/03 00:43:57;;;;;;;8.60;5.83;;;2.40;99.90;;;;;;4880564;29;20474;-65
2021/01/03 00:46:23;;;;;;;7.43;5.00;;;2.50;99.90;;;;;;4880335;29;20906;-65
2021/01/03 00:48:49;;;;;;;8.13;5.60;;;2.50;99.90;;;;;;4880557;29;20804;-65
2021/01/03 00:51:16;;;;;;;8.07;5.27;;;2.60;99.90;;;;;;4880527;29;20449;-65
2021/01/03 00:53:43;;;;;;;9.50;6.17;;;2.50;99.90;;;;;;4880394;29;20481;-65
2021/01/03 00:56:09;;;;;;;7.70;5.70;;;2.50;99.90;;;;;;4880698;29;20458;-65
2021/01/03 00:58:35;;;;;;;7.03;5.27;;;2.50;99.90;;;;;;4880379;29;20528;-65
2021/01/03 01:01:01;;;;;;;8.70;5.70;;;2.40;99.90;;;;;;4880267;29;20492;-65
2021/01/03 01:03:28;;;;;;;8.53;5.60;;;2.40;99.90;;;;;;4879921;29;20892;-65
2021/01/03 01:05:54;;;;;;;6.50;5.10;;;2.40;99.90;;;;;;4880512;29;20454;-65
2021/01/03 01:08:22;;;;;;;7.73;5.50;;;2.40;99.90;;;;;;4880183;29;20449;-65
2021/01/03 01:10:48;;;;;;;7.60;5.57;;;2.40;99.90;;;;;;4879865;29;20966;-65
2021/01/03 01:13:14;;;;;;;9.40;6.73;;;2.50;99.90;;;;;;4880071;29;20522;-65
2021/01/03 01:15:41;;;;;;;8.60;6.30;;;2.50;99.90;;;;;;4879810;29;20835;-65
2021/01/03 01:18:07;;;;;;;9.10;5.90;;;2.50;99.90;;;;;;4880018;29;20470;-65
2021/01/03 01:20:34;;;;;;;6.57;4.80;;;2.50;99.90;;;;;;4879577;29;20497;-65
2021/01/03 01:23:02;;;;;;;8.20;5.63;;;2.50;99.90;;;;;;4879908;29;20477;-65
2021/01/03 01:25:31;;;;;;;8.23;6.00;;;2.60;99.90;;;;;;4879962;29;20485;-65
2021/01/03 01:27:57;;;;;;;6.00;5.40;;;2.60;99.90;;;;;;4879865;29;20461;-65
2021/01/03 01:30:26;;;;;;;7.20;6.13;;;2.60;99.90;;;;;;4880418;29;20456;-65
2021/01/03 01:32:52;;;;;;;7.03;5.23;;;2.50;99.90;;;;;;4879776;29;20474;-65
2021/01/03 01:35:22;;;;;;;8.33;6.07;;;2.50;99.90;;;;;;4879483;29;20869;-65
2021/01/03 01:37:48;;;;;;;8.57;5.60;;;2.40;99.90;;;;;;4879793;29;20457;-65
2021/01/03 01:40:18;;;;;;;7.57;5.63;;;2.40;99.90;;;;;;4879674;29;20493;-65
2021/01/03 01:42:45;;;;;;;8.27;6.17;;;2.40;99.90;;;;;;4879660;29;20497;-65
2021/01/03 01:45:14;;;;;;;8.33;6.37;;;2.50;99.90;;;;;;4879719;29;20450;-65
2021/01/03 01:47:44;;;;;;;8.20;5.93;;;2.50;99.90;;;;;;4879668;29;20457;-65
2021/01/03 01:50:18;;;;;;;10.77;5.77;;;2.50;99.90;;;;;;4879909;29;20446;-65
2021/01/03 01:52:49;;;;;;;7.63;5.60;;;2.50;99.90;;;;;;4879419;29;20544;-65
2021/01/03 01:55:19;;;;;;;7.93;5.90;;;2.50;99.90;;;;;;4879701;29;20445;-65
2021/01/03 01:57:51;;;;;;;11.93;6.60;;;2.50;99.90;;;;;;4879664;29;20417;-65
2021/01/03 02:00:21;;;;;;;11.80;6.37;;;2.50;99.90;;;;;;4879532;29;20470;-64
2021/01/03 02:02:55;;;;;;;9.33;5.90;;;2.50;99.90;;;;;;4879465;29;21052;-64
2021/01/03 02:05:25;;;;;;;8.17;5.50;;;2.50;99.90;;;;;;4879267;29;20945;-65
2021/01/03 02:07:57;;;;;;;8.27;6.17;;;2.50;99.90;;;;;;4880057;29;20438;-65
2021/01/03 02:10:29;;;;;;;11.33;6.23;;;2.50;99.90;;;;;;4879487;29;20438;-65
2021/01/03 02:13:07;;;;;;;7.97;5.83;;;2.50;99.90;;;;;;4879142;29;20982;-65
2021/01/03 02:15:35;;;;;;;9.50;5.93;;;2.50;99.90;;;;;;4879500;29;20444;-65
2021/01/03 02:18:03;;;;;;;11.10;6.77;;;2.40;99.90;;;;;;4879409;29;20452;-65
2021/01/03 02:20:36;;;;;;;8.47;5.03;;;2.50;99.90;;;;;;4878979;29;20508;-65
2021/01/03 02:23:06;;;;;;;8.63;6.37;;;2.50;99.90;;;;;;4879596;29;20481;-65
2021/01/03 02:25:34;;;;;;;10.70;6.17;;;2.50;99.90;;;;;;4879382;29;20490;-64
2021/01/03 02:28:11;;;;;;;10.53;6.27;;;2.50;99.90;;;;;;4879323;29;20453;-64
2021/01/03 02:30:38;;;;;;;6.90;5.63;;;2.50;99.90;;;;;;4879364;29;20430;-65
2021/01/03 02:33:10;;;;;;;8.97;6.60;;;2.50;99.90;;;;;;4879191;29;20473;-64
2021/01/03 02:35:39;;;;;;;9.40;6.00;;;2.40;99.90;;;;;;4879436;29;20424;-65
2021/01/03 02:38:07;;;;;;;7.43;5.40;;;2.40;99.90;;;;;;4878958;29;20951;-65
2021/01/03 02:40:35;;;;;;;7.57;6.07;;;2.40;99.90;;;;;;4879164;29;20489;-65
2021/01/03 02:43:01;;;;;;;8.07;6.07;;;2.50;99.90;;;;;;4879113;29;20474;-64
2021/01/03 02:45:30;;;;;;;12.17;6.87;;;2.50;99.90;;;;;;4879188;29;20453;-65
2021/01/03 02:48:00;;;;;;;9.80;6.53;;;2.40;99.90;;;;;;4879153;29;20454;-64
2021/01/03 02:50:27;;;;;;;10.20;6.03;;;2.40;99.90;;;;;;4878851;29;20907;-64
2021/01/03 02:52:54;;;;;;;7.90;6.13;;;2.30;99.90;;;;;;4879061;29;20474;-64
2021/01/03 02:55:21;;;;;;;8.57;6.03;;;2.40;99.90;;;;;;4878797;29;20966;-65
2021/01/03 02:57:48;;;;;;;10.00;6.50;;;2.30;99.90;;;;;;4879090;29;20446;-65
2021/01/03 03:00:20;;;;;;;9.93;6.80;;;2.30;99.90;;;;;;4878683;29;20481;-64
2021/01/03 03:02:47;;;;;;;12.00;7.60;;;2.30;99.90;;;;;;4878687;29;20986;-64
2021/01/03 03:05:14;;;;;;;13.47;7.00;;;2.30;99.90;;;;;;4882416;29;20465;-64
2021/01/03 03:07:40;;;;;;;9.60;6.30;;;2.30;99.90;;;;;;4882376;29;20477;-64
2021/01/03 03:10:07;;;;;;;8.87;6.07;;;2.30;99.90;;;;;;4882331;29;20457;-64
2021/01/03 03:12:34;;;;;;;9.07;5.80;;;2.20;99.90;;;;;;4881894;29;21021;-64
2021/01/03 03:15:01;;;;;;;7.37;6.17;;;2.20;99.90;;;;;;4881931;29;20828;-64
2021/01/03 03:17:27;;;;;;;10.47;7.20;;;2.20;99.90;;;;;;4882193;29;20430;-64
2021/01/03 03:19:53;;;;;;;14.73;6.67;;;2.20;99.90;;;;;;4881711;29;20457;-64
2021/01/03 03:22:19;;;;;;;8.20;6.20;;;2.20;99.90;;;;;;4882067;29;20446;-64
2021/01/03 03:24:45;;;;;;;11.70;6.93;;;2.20;99.90;;;;;;4882070;29;20457;-64
2021/01/03 03:27:12;;;;;;;10.30;6.97;;;2.20;99.90;;;;;;4882001;29;20461;-64
2021/01/03 03:29:38;;;;;;;12.70;7.57;;;2.20;99.90;;;;;;4881973;29;20449;-65
2021/01/03 03:32:05;;;;;;;10.13;6.37;;;2.20;99.90;;;;;;4881632;29;20454;-64
2021/01/03 03:34:32;;;;;;;11.10;6.80;;;2.20;99.90;;;;;;4881778;29;20466;-65
2021/01/03 03:36:58;;;;;;;10.37;6.37;;;2.20;99.90;;;;;;4881832;29;20449;-64
2021/01/03 03:39:26;;;;;;;11.43;6.60;;;2.20;99.90;;;;;;4881810;29;20481;-64
2021/01/03 03:41:54;;;;;;;9.80;6.93;;;2.20;99.90;;;;;;4881661;29;20490;-64
2021/01/03 03:44:21;;;;;;;7.70;6.60;;;2.20;99.90;;;;;;4881635;29;20557;-65
2021/01/03 03:46:50;;;;;;;12.37;6.80;;;2.20;99.90;;;;;;4881416;29;21014;-64
2021/01/03 03:49:18;;;;;;;11.00;7.23;;;2.30;99.90;;;;;;4881888;29;20867;-64
2021/01/03 03:51:44;;;;;;;9.77;6.87;;;2.20;99.90;;;;;;4881607;29;20442;-65
2021/01/03 03:54:10;;;;;;;10.00;6.60;;;2.30;99.90;;;;;;4881509;29;20477;-64
2021/01/03 03:56:36;;;;;;;10.30;6.37;;;2.20;99.90;;;;;;4881529;29;20505;-64
2021/01/03 03:59:03;;;;;;;8.87;6.43;;;2.30;99.90;;;;;;4881119;29;20925;-64
2021/01/03 04:01:37;;;;;;;8.20;6.10;;;2.30;99.90;;;;;;4881360;29;20481;-65
2021/01/03 04:04:03;;;;;;;12.90;8.03;;;2.30;99.90;;;;;;4881534;29;20469;-64
2021/01/03 04:06:31;;;;;;;11.10;6.90;;;2.20;99.90;;;;;;4881335;29;20450;-65
2021/01/03 04:08:57;;;;;;;10.97;6.87;;;2.10;99.90;;;;;;4881288;29;20450;-64
2021/01/03 04:11:23;;;;;;;9.97;6.20;;;2.10;99.90;;;;;;4881265;29;20449;-64
2021/01/03 04:13:50;;;;;;;8.90;7.43;;;2.20;99.90;;;;;;4881081;29;20525;-64
2021/01/03 04:16:16;;;;;;;11.00;7.30;;;2.20;99.90;;;;;;4881151;29;20450;-64
2021/01/03 04:18:42;;;;;;;8.80;7.00;;;2.30;99.90;;;;;;4880949;29;20454;-64
2021/01/03 04:21:10;;;;;;;10.23;6.70;;;2.30;99.90;;;;;;4880757;29;20986;-64
2021/01/03 04:23:37;;;;;;;14.17;7.43;;;2.20;99.90;;;;;;4880994;29;20470;-64
2021/01/03 04:26:04;;;;;;;14.20;7.03;;;2.20;99.90;;;;;;4880675;29;20481;-64
2021/01/03 04:28:30;;;;;;;11.33;7.37;;;2.20;99.90;;;;;;4880922;29;20446;-64
2021/01/03 04:30:56;;;;;;;12.87;7.80;;;2.20;99.90;;;;;;4880882;29;20417;-64
2021/01/03 04:33:22;;;;;;;9.30;6.93;;;2.20;99.90;;;;;;4880745;29;20466;-64
2021/01/03 04:35:49;;;;;;;10.10;6.90;;;2.20;99.90;;;;;;4880807;29;20450;-64
2021/01/03 04:38:15;;;;;;;12.40;7.13;;;2.30;99.90;;;;;;4880754;29;20457;-64
2021/01/03 04:40:43;;;;;;;10.50;6.80;;;2.30;99.90;;;;;;4880637;29;20486;-64
2021/01/03 04:43:15;;;;;;;11.77;8.17;;;2.30;99.90;;;;;;4880650;29;20481;-65
2021/01/03 04:45:45;;;;;;;12.37;7.43;;;2.30;99.90;;;;;;4880675;29;20442;-64
2021/01/03 04:48:19;;;;;;;11.10;8.40;;;2.20;99.90;;;;;;4880552;29;20461;-65
2021/01/03 04:51:02;;;;;;;11.60;7.13;;;2.30;99.90;;;;;;4880788;29;20438;-64
2021/01/03 04:53:41;;;;;;;10.63;7.37;;;2.30;99.90;;;;;;4875010;29;20533;-64
2021/01/03 04:56:20;;;;;;;11.10;7.37;;;2.30;99.90;;;;;;4880480;29;20486;-64
2021/01/03 04:58:57;;;;;;;13.47;9.07;;;2.20;99.90;;;;;;4880415;29;20430;-64
2021/01/03 05:02:14;;;;;;;10.73;7.60;;;2.20;99.90;;;;;;4880311;29;20506;-64
2021/01/03 05:04:48;;;;;;;11.60;6.93;;;2.20;99.90;;;;;;4852601;29;20450;-64
2021/01/03 05:07:19;;;;;;;10.50;7.60;;;2.20;99.90;;;;;;4879948;29;20788;-64
2021/01/03 05:09:50;;;;;;;11.37;8.07;;;2.20;99.90;;;;;;4880228;29;20408;-64
2021/01/03 05:12:23;;;;;;;12.00;8.30;;;2.20;99.90;;;;;;4880111;29;20422;-64
2021/01/03 05:14:54;;;;;;;13.83;7.97;;;2.20;99.90;;;;;;4880197;29;20420;-64
2021/01/03 05:17:21;;;;;;;12.50;8.13;;;2.20;99.90;;;;;;4880156;29;20416;-65
2021/01/03 05:19:47;;;;;;;10.77;7.93;;;2.20;99.90;;;;;;4879756;29;20561;-64
2021/01/03 05:22:26;;;;;;;12.30;8.27;;;2.20;99.90;;;;;;4879905;29;20485;-64
2021/01/03 05:24:55;;;;;;;12.70;8.20;;;2.20;99.90;;;;;;4880025;29;20495;-64
2021/01/03 05:27:22;;;;;;;11.00;7.23;;;2.30;99.90;;;;;;4879250;29;20954;-65
2021/01/03 05:29:48;;;;;;;12.27;8.03;;;2.30;99.90;;;;;;4879916;29;20488;-64
2021/01/03 05:32:28;;;;;;;11.77;7.80;;;2.30;99.90;;;;;;4880480;29;20461;-64
2021/01/03 05:34:54;;;;;;;12.90;8.13;;;2.20;99.90;;;;;;4879871;29;20413;-64
2021/01/03 05:37:25;;;;;;;11.73;7.23;;;2.20;99.90;;;;;;4879836;29;20826;-64
2021/01/03 05:39:52;;;;;;;11.57;7.57;;;2.20;99.90;;;;;;4880500;29;20458;-64
2021/01/03 05:42:35;;;;;;;11.93;8.20;;;2.20;99.90;;;;;;4879637;29;20508;-64
2021/01/03 05:45:08;;;;;;;11.73;7.40;;;2.20;99.90;;;;;;4879782;29;20438;-64
2021/01/03 05:47:36;;;;;;;10.50;7.73;;;2.20;99.90;;;;;;4879756;29;20441;-64
2021/01/03 05:50:26;;;;;;;10.03;7.93;;;2.10;99.90;;;;;;4879680;29;20883;-64
2021/01/03 05:52:55;;;;;;;11.50;7.67;;;2.20;99.90;;;;;;4880170;29;20455;-64
2021/01/03 05:55:24;;;;;;;12.50;8.07;;;2.20;99.90;;;;;;4879633;29;20450;-64
2021/01/03 05:58:05;;;;;;;12.17;8.20;;;2.20;99.90;;;;;;4879556;29;20464;-64
2021/01/03 06:00:31;;;;;;;14.67;8.10;;;2.20;99.90;;;;;;4879901;29;20480;-64
2021/01/03 06:03:17;;;;;;;10.10;6.70;;;2.20;99.90;;;;;;4879469;29;20505;-64
2021/01/03 06:05:45;;;;;;;12.37;7.20;;;2.20;99.90;;;;;;4879572;29;20439;-64
2021/01/03 06:08:16;;;;;;;11.47;7.10;;;2.20;99.90;;;;;;4879428;29;20951;-64
2021/01/03 06:10:43;;;;;;;12.47;6.90;;;2.10;99.90;;;;;;4879211;29;20525;-64
2021/01/03 06:13:13;;;;;;;11.10;7.60;;;2.20;99.90;;;;;;4879623;29;20476;-64
2021/01/03 06:15:43;;;;;;;11.30;6.93;;;2.10;99.90;;;;;;4879459;29;20453;-64
2021/01/03 06:18:15;;;;;;;10.00;7.17;;;2.10;99.90;;;;;;4879474;29;20434;-64
2021/01/03 06:20:43;;;;;;;11.23;7.53;;;2.10;99.90;;;;;;4878899;29;20502;-64
2021/01/03 06:23:11;;;;;;;8.93;6.47;;;2.10;99.90;;;;;;4879764;29;20470;-64
2021/01/03 06:25:44;;;;;;;10.60;6.33;;;2.10;99.90;;;;;;4879354;29;20450;-64
2021/01/03 06:28:24;;;;;;;8.20;6.60;;;2.20;99.90;;;;;;4879366;29;20934;-64
2021/01/03 06:31:00;;;;;;;9.93;7.20;;;2.20;99.90;;;;;;4879368;29;20457;-64
2021/01/03 06:34:01;;;;;;;9.67;6.00;;;2.10;99.90;;;;;;4879243;29;20477;-64
2021/01/03 06:36:38;;;;;;;10.10;6.70;;;2.10;99.90;;;;;;4879314;29;20860;-64
2021/01/03 06:39:19;;;;;;;11.47;6.67;;;2.10;99.90;;;;;;4881220;29;20441;-65
2021/01/03 06:41:52;;;;;;;8.87;6.03;;;2.10;99.90;;;;;;4882830;29;20469;-64
2021/01/03 06:44:43;;;;;;;9.17;6.93;;;2.20;99.90;;;;;;4882740;29;20473;-64
2021/01/03 06:47:47;;;;;;;11.63;7.30;;;2.20;99.90;;;;;;4882788;29;20442;-65
2021/01/03 06:50:41;;;;;;;10.40;6.87;;;2.20;99.90;;;;;;4875203;29;20462;-64
2021/01/03 06:53:50;;;;;;;8.53;6.67;;;2.10;99.90;;;;;;4882410;29;20477;-64
2021/01/03 06:56:51;;;;;;;11.83;7.10;;;2.10;99.90;;;;;;4875253;29;20894;-64
2021/01/03 06:59:57;;;;;;;9.63;6.50;;;2.10;99.90;;;;;;4882261;29;20890;-64
2021/01/03 07:02:25;;;;;;;11.30;6.87;;;2.10;99.90;;;;;;4852043;29;21009;-64
2021/01/03 07:04:52;;;;;;;11.40;6.87;;;2.20;99.90;;;;;;4882107;29;20457;-64
2021/01/03 07:07:22;;;;;;;12.60;7.40;;;2.20;99.90;;;;;;4882371;29;20450;-64
2021/01/03 07:09:55;;;;;;;10.80;6.63;;;2.20;99.90;;;;;;4882320;29;20521;-64
2021/01/03 07:12:33;;;;;;;12.60;8.10;;;2.20;99.90;;;;;;4882233;29;20537;-64
2021/01/03 07:15:00;;;;;;;12.30;7.77;;;2.20;99.90;;;;;;4881946;29;20930;-64
2021/01/03 07:17:51;;;;;;;11.90;7.70;;;2.20;99.90;;;;;;4882219;29;20424;-64
2021/01/03 07:20:25;;;;;;;15.03;8.30;;;2.20;99.90;;;;;;4881677;29;20492;-64
2021/01/03 07:23:02;;;;;;;11.10;7.80;;;2.10;99.90;;;;;;4882068;29;20871;-64
2021/01/03 07:25:38;;;;;;;11.43;7.57;;;2.10;99.90;;;;;;4881844;29;20919;-64
2021/01/03 07:28:11;;;;;;;12.30;7.80;;;2.20;99.90;;;;;;4882145;29;20445;-64
2021/01/03 07:30:49;;;;;;;12.40;8.40;;;2.20;99.90;;;;;;4881925;29;20452;-64
2021/01/03 07:33:27;;;;;;;11.67;7.17;;;2.20;99.90;;;;;;4881936;29;21009;-65
2021/01/03 07:35:54;;;;;;;11.90;7.23;;;2.20;99.90;;;;;;4881939;29;20974;-64
2021/01/03 07:38:30;;;;;;;11.07;7.33;;;2.20;99.90;;;;;;4881824;29;20454;-64
2021/01/03 07:41:04;;;;;;;10.30;6.63;;;2.30;99.90;;;;;;4881738;29;20965;-64
2021/01/03 07:43:59;;;;;;;12.57;8.27;;;2.20;99.90;;;;;;4881647;29;20567;-64
2021/01/03 07:46:51;;;;;;;14.13;8.50;;;2.30;99.90;;;;;;4882150;29;20435;-65
2021/01/03 07:49:41;;;;;;;10.97;7.23;;;2.30;99.90;;;;;;4874359;29;20437;-64
2021/01/03 07:52:38;;;;;;;11.80;7.73;;;2.40;99.90;;;;;;4881633;29;20404;-64
2021/01/03 07:55:06;;;;;;;11.27;7.20;;;2.40;99.90;;;;;;4882137;29;20438;-64
2021/01/03 07:57:32;;;;;;;11.43;6.93;;;2.40;99.90;;;;;;4881481;29;20450;-64
2021/01/03 08:00:00;;;;;;;11.10;6.73;;;2.40;99.90;;;;;;4881116;29;20461;-64
2021/01/03 08:02:29;;;;;;;13.37;8.53;;;2.40;99.90;;;;;;4880997;29;21021;-64
2021/01/03 08:04:57;;;;;;;11.27;7.53;;;2.50;99.90;;;;;;4881114;29;20966;-64
2021/01/03 08:07:24;;;;;;;11.93;8.10;;;2.60;99.90;;;;;;4881329;29;20456;-64
2021/01/03 08:09:51;;;;;;;14.13;9.00;;;2.60;99.90;;;;;;4881297;29;20485;-64
2021/01/03 08:12:22;;;;;;;12.30;8.23;;;2.60;99.90;;;;;;4881062;29;20502;-64
2021/01/03 08:14:52;;;;;;;12.37;7.00;;;2.60;99.90;;;;;;4881909;29;20425;-64
2021/01/03 08:17:25;;;;;;;11.53;8.63;;;2.60;99.90;;;;;;4880916;29;20938;-64
2021/01/03 08:19:51;;;;;;;16.37;8.63;;;2.70;99.90;;;;;;4880855;29;20485;-64
2021/01/03 08:22:25;;;;;;;10.50;7.30;;;2.70;99.90;;;;;;4881479;29;20453;-64
2021/01/03 08:24:53;;;;;;;13.03;8.07;;;2.70;99.90;;;;;;4881058;29;20434;-64
2021/01/03 08:27:22;;;;;;;10.40;6.80;;;2.70;99.90;;;;;;4881029;29;20527;-64
2021/01/03 08:29:58;;;;;;;9.80;7.30;;;2.70;99.90;;;;;;4881505;29;20449;-64
2021/01/03 08:32:27;;;;;;;12.10;6.90;;;2.70;99.90;;;;;;4880538;29;20926;-64
2021/01/03 08:34:58;;;;;;;13.37;7.53;;;2.80;99.90;;;;;;4880872;29;20439;-64
2021/01/03 08:37:29;;;;;;;11.60;8.03;;;2.80;99.90;;;;;;4881372;29;20438;-64
2021/01/03 08:39:56;;;;;;;12.03;7.80;;;2.70;99.90;;;;;;4880788;29;20443;-64
2021/01/03 08:42:27;;;;;;;9.23;6.67;;;2.80;99.90;;;;;;4880615;29;20470;-64
2021/01/03 08:44:56;;;;;;;9.83;6.37;;;2.80;99.90;;;;;;4880710;29;20442;-64
2021/01/03 08:47:27;;;;;;;13.20;7.53;;;2.80;99.90;;;;;;4880657;29;20490;-64
2021/01/03 08:50:08;;;;;;;11.30;7.00;;;2.80;99.90;;;;;;4880598;29;20446;-64
2021/01/03 08:52:36;;;;;;;12.83;7.27;;;2.80;99.90;;;;;;4880457;29;20470;-64
2021/01/03 08:55:15;;;;;;;9.67;6.53;;;2.80;99.90;;;;;;4880525;29;20439;-64
2021/01/03 08:57:43;;;;;;;10.63;7.07;;;2.80;99.90;;;;;;4880512;29;20440;-64
2021/01/03 09:00:15;;;;;;;14.30;7.73;;;2.80;99.90;;;;;;4880312;29;20449;-64
2021/01/03 09:02:44;;;;;;;10.00;7.03;;;2.70;99.90;;;;;;4879506;29;21070;-64
2021/01/03 09:05:15;;;;;;;9.60;6.27;;;2.90;99.90;;;;;;4880322;29;20476;-64
2021/01/03 09:07:42;;;;;;;10.30;6.90;;;2.90;99.90;;;;;;4880346;29;20420;-64
2021/01/03 09:10:17;;;;;;;10.87;6.70;;;3.00;99.90;;;;;;4880215;29;20432;-64
2021/01/03 09:12:44;;;;;;;9.67;6.53;;;3.10;99.90;;;;;;4880138;29;20499;-64
2021/01/03 09:15:15;;;;;;;9.80;5.57;;;3.10;99.90;;;;;;4879854;29;20454;-64
2021/01/03 09:17:42;;;;;;;10.20;6.87;;;3.10;99.90;;;;;;4880175;29;20785;-64
2021/01/03 09:20:27;;;;;;;15.93;6.80;;;3.10;99.90;;;;;;4879725;29;20486;-64
2021/01/03 09:23:03;;;;;;;11.80;7.00;;;3.10;99.90;;;;;;4880001;29;20504;-64
2021/01/03 09:25:32;;;;;;;10.73;6.60;;;3.10;99.90;;;;;;4879750;29;20909;-64
2021/01/03 09:28:09;;;;;;;10.43;6.80;;;3.20;99.90;;;;;;4880001;29;20827;-64
2021/01/03 09:30:38;;;;;;;9.73;7.30;;;3.20;99.90;;;;;;4879962;29;20769;-64
2021/01/03 09:33:13;;;;;;;9.00;6.50;;;3.20;99.90;;;;;;4879770;29;20484;-64
2021/01/03 09:36:02;;;;;;;9.33;6.97;;;3.20;99.90;;;;;;4879944;29;20455;-64
2021/01/03 09:39:00;;;;;;;11.50;6.97;;;3.20;99.90;;;;;;4866500;29;20461;-64
2021/01/03 09:41:39;;;;;;;10.33;6.93;;;3.20;99.90;;;;;;4879744;29;20476;-64
2021/01/03 09:44:15;;;;;;;10.83;6.73;;;3.20;99.90;;;;;;4879738;29;20613;-64
2021/01/03 09:46:50;;;;;;;12.13;7.03;;;3.30;99.90;;;;;;4879768;29;20434;-64
2021/01/03 09:49:22;;;;;;;11.67;7.40;;;3.30;99.90;;;;;;4879713;29;20528;-65
2021/01/03 09:51:59;;;;;;;7.97;6.07;;;3.40;99.90;;;;;;4879729;29;20809;-64
2021/01/03 09:54:35;;;;;;;9.10;6.50;;;3.40;99.90;;;;;;4879315;29;21018;-64
2021/01/03 09:57:02;;;;;;;10.10;6.57;;;3.50;99.90;;;;;;4879666;29;20794;-64
2021/01/03 09:59:28;;;;;;;9.70;6.97;;;3.60;99.90;;;;;;4879277;29;20937;-64
2021/01/03 10:01:54;;;;;;;9.50;6.60;;;3.70;99.90;;;;;;4880025;29;20489;-65
2021/01/03 10:04:24;;;;;;;9.90;6.50;;;3.80;99.90;;;;;;4879459;29;20473;-64
2021/01/03 10:06:52;;;;;;;12.53;7.77;;;3.80;99.90;;;;;;4879399;29;21072;-64
2021/01/03 10:09:31;;;;;;;11.47;7.23;;;3.80;99.90;;;;;;4879553;29;20879;-64
2021/01/03 10:11:57;;;;;;;10.80;7.10;;;3.90;99.90;;;;;;4879811;29;20446;-64
2021/01/03 10:14:30;;;;;;;9.77;6.93;;;3.90;99.90;;;;;;4883246;29;20465;-65
2021/01/03 10:16:56;;;;;;;9.80;6.80;;;3.90;99.90;;;;;;4883309;29;20502;-64
2021/01/03 10:19:24;;;;;;;9.80;6.90;;;3.90;99.90;;;;;;4883051;29;20549;-64
2021/01/03 10:21:51;;;;;;;9.10;6.67;;;3.80;99.90;;;;;;4882814;29;20906;-64
2021/01/03 10:24:21;;;;;;;9.80;6.63;;;3.80;99.90;;;;;;4883053;29;20497;-64
2021/01/03 10:27:11;;;;;;;10.10;6.93;;;3.70;99.90;;;;;;4883173;29;20442;-64
2021/01/03 10:29:38;;;;;;;11.60;7.57;;;3.70;99.90;;;;;;4883103;29;20540;-64
2021/01/03 10:32:05;;;;;;;9.60;6.67;;;3.70;99.90;;;;;;4883031;29;20474;-64
2021/01/03 10:34:31;;;;;;;10.70;7.60;;;3.70;99.90;;;;;;4882863;29;20469;-64
2021/01/03 10:36:59;;;;;;;23.83;10.00;;;3.70;99.90;;;;;;4882664;29;21015;-64
2021/01/03 10:39:27;;;;;;;9.77;7.20;;;3.60;99.90;;;;;;4882614;29;20800;-64
2021/01/03 10:41:54;;;;;;;13.40;7.77;;;3.50;99.90;;;;;;4882776;29;20492;-64
2021/01/03 10:44:20;;;;;;;9.23;6.77;;;3.60;99.90;;;;;;4882753;29;20481;-64
2021/01/03 10:46:48;;;;;;;12.30;7.87;;;3.60;99.90;;;;;;4882777;29;20454;-64
2021/01/03 10:49:14;;;;;;;10.30;6.70;;;3.50;99.90;;;;;;4882747;29;20533;-64
2021/01/03 10:51:44;;;;;;;8.20;6.73;;;3.60;99.90;;;;;;4882371;29;20837;-64
2021/01/03 10:54:13;;;;;;;11.23;7.53;;;3.60;99.90;;;;;;4882325;29;20990;-67
2021/01/03 10:56:40;;;;;;;9.60;6.90;;;3.40;99.90;;;;;;4882665;29;20446;-63
2021/01/03 10:59:07;;;;;;;13.40;9.10;;;3.40;99.90;;;;;;4882556;29;20820;-65
2021/01/03 11:01:37;;;;;;;13.00;8.50;;;3.40;99.90;;;;;;4882140;29;21009;-66
2021/01/03 11:04:05;;;;;;;10.33;7.10;;;3.30;99.90;;;;;;4882388;29;20470;-67
2021/01/03 11:06:38;;;;;;;10.93;6.90;;;3.30;99.90;;;;;;4882374;29;20468;-66
2021/01/03 11:09:07;;;;;;;11.23;7.30;;;3.20;99.90;;;;;;4882125;29;20915;-66
2021/01/03 11:11:33;;;;;;;11.07;7.47;;;3.20;99.90;;;;;;4882616;29;20449;-66
2021/01/03 11:14:00;;;;;;;13.70;8.43;;;3.20;99.90;;;;;;4882021;29;21000;-66
2021/01/03 11:16:31;;;;;;;14.30;7.93;;;3.20;99.90;;;;;;4882358;29;20486;-66
2021/01/03 11:18:57;;;;;;;11.20;7.33;;;3.20;99.90;;;;;;4882054;29;20461;-66
2021/01/03 11:21:24;;;;;;;12.67;8.13;;;3.20;99.90;;;;;;4882130;29;20469;-66
2021/01/03 11:23:51;;;;;;;12.83;7.80;;;3.20;99.90;;;;;;4881124;29;20903;-66
2021/01/03 11:26:25;;;;;;;11.87;7.50;;;3.20;99.90;;;;;;4882145;29;20434;-66
2021/01/03 11:28:52;;;;;;;12.47;7.43;;;3.20;99.90;;;;;;4882130;29;20437;-66
2021/01/03 11:31:18;;;;;;;13.83;8.40;;;3.20;99.90;;;;;;4882057;29;20438;-66
2021/01/03 11:33:44;;;;;;;13.93;9.37;;;3.20;99.90;;;;;;4881940;29;20456;-66
2021/01/03 11:36:10;;;;;;;13.20;8.13;;;3.20;99.90;;;;;;4881697;29;20818;-66
2021/01/03 11:38:37;;;;;;;14.47;8.23;;;3.20;99.90;;;;;;4881895;29;20442;-66
2021/01/03 11:41:03;;;;;;;11.07;7.67;;;3.20;99.90;;;;;;4881536;29;21020;-66
2021/01/03 11:43:30;;;;;;;13.53;8.70;;;3.10;99.90;;;;;;4881772;29;20478;-66
2021/01/03 11:45:56;;;;;;;14.43;9.77;;;3.10;99.90;;;;;;4881792;29;20442;-66
2021/01/03 11:48:22;;;;;;;11.97;8.13;;;3.10;99.90;;;;;;4881726;29;20442;-66
2021/01/03 11:50:49;;;;;;;12.13;7.30;;;3.20;99.90;;;;;;4881728;29;20511;-66
2021/01/03 11:53:15;;;;;;;16.03;8.67;;;3.30;99.90;;;;;;4881562;29;20481;-66
2021/01/03 11:55:42;;;;;;;12.70;7.27;;;3.30;99.90;;;;;;4881650;29;20438;-66
2021/01/03 11:58:08;;;;;;;12.67;8.27;;;3.40;99.90;;;;;;4881303;29;20461;-66
2021/01/03 12:00:34;;;;;;;13.33;8.80;;;3.50;99.90;;;;;;4881529;29;20471;-67
2021/01/03 12:03:00;;;;;;;11.33;7.63;;;3.50;99.90;;;;;;4881331;29;20489;-67
2021/01/03 12:05:26;;;;;;;11.33;7.40;;;3.60;99.90;;;;;;4881137;29;20918;-67
2021/01/03 12:07:53;;;;;;;14.43;8.50;;;3.50;99.90;;;;;;4881408;29;20442;-67
2021/01/03 12:10:19;;;;;;;11.10;7.00;;;3.60;99.90;;;;;;4881064;29;20932;-67
2021/01/03 12:12:46;;;;;;;10.77;7.00;;;3.60;99.90;;;;;;4881259;29;20465;-67
2021/01/03 12:15:12;;;;;;;10.53;7.10;;;3.60;99.90;;;;;;4881282;29;20438;-67
2021/01/03 12:17:39;;;;;;;10.70;7.03;;;3.50;99.90;;;;;;4881445;29;20438;-67
2021/01/03 12:20:06;;;;;;;11.00;7.57;;;3.60;99.90;;;;;;4880973;29;20485;-67
2021/01/03 12:22:32;;;;;;;9.77;6.83;;;3.60;99.90;;;;;;4880689;29;20877;-67
2021/01/03 12:24:59;;;;;;;10.80;7.10;;;3.60;99.90;;;;;;4881082;29;20517;-66
2021/01/03 12:27:25;;;;;;;8.10;6.37;;;3.60;99.90;;;;;;4881035;29;20438;-67
2021/01/03 12:29:52;;;;;;;9.47;6.77;;;3.60;99.90;;;;;;4881024;29;20438;-67
2021/01/03 12:32:18;;;;;;;9.40;6.20;;;3.60;99.90;;;;;;4880925;29;20501;-67
2021/01/03 12:34:44;;;;;;;8.80;5.83;;;3.60;99.90;;;;;;4880947;29;20445;-67
2021/01/03 12:37:14;;;;;;;11.03;7.40;;;3.60;99.90;;;;;;4879860;29;20437;-67
2021/01/03 12:39:41;;;;;;;10.30;7.00;;;3.60;99.90;;;;;;4880876;29;20434;-66
2021/01/03 12:42:08;;;;;;;11.07;7.10;;;3.70;99.90;;;;;;4880714;29;20530;-66
2021/01/03 12:44:34;;;;;;;11.23;6.67;;;3.70;99.90;;;;;;4880384;29;20477;-65
2021/01/03 12:47:02;;;;;;;13.67;7.67;;;3.80;99.90;;;;;;4880705;29;20454;-66
2021/01/03 12:49:28;;;;;;;12.27;7.37;;;3.80;99.90;;;;;;4880634;29;20438;-66
2021/01/03 12:51:55;;;;;;;10.10;6.97;;;3.80;99.90;;;;;;4880581;29;20514;-66
2021/01/03 12:54:22;;;;;;;16.07;10.17;;;3.80;99.90;;;;;;4880287;29;20872;-66
2021/01/03 12:56:48;;;;;;;11.57;7.60;;;3.80;99.90;;;;;;4880450;29;20505;-66
2021/01/03 12:59:15;;;;;;;8.23;6.37;;;3.90;99.90;;;;;;4880447;29;20449;-66
2021/01/03 13:01:43;;;;;;;10.47;6.93;;;3.90;99.90;;;;;;4880340;29;20496;-66
2021/01/03 13:04:13;;;;;;;9.63;6.87;;;3.80;99.90;;;;;;4880261;29;20474;-66
2021/01/03 13:06:40;;;;;;;11.77;8.40;;;3.80;99.90;;;;;;4880341;29;20457;-66
2021/01/03 13:09:08;;;;;;;10.03;7.20;;;3.90;99.90;;;;;;4880271;29;20854;-66